sensor_id;sensor_type;location;lat;lon;timestamp;P1;durP1;ratioP1;P2;durP2;ratioP2
75837;SDS011;64480;52.040;113.502;2023-04-24T00:02:39;2.17;;;1.20;;
75837;SDS011;64480;52.040;113.502;2023-04-24T00:05:43;10.43;;;2.30;;
75837;SDS011;64480;52.040;113.502;2023-04-24T00:08:48;5.85;;;1.58;;
75837;SDS011;64480;52.040;113.502;2023-04-24T00:11:51;5.03;;;1.40;;
75837;SDS011;64480;52.040;113.502;2023-04-24T00:14:56;6.65;;;2.35;;
75837;SDS011;64480;52.040;113.502;2023-04-24T00:17:59;6.10;;;1.65;;
75837;SDS011;64480;52.040;113.502;2023-04-24T00:21:03;6.47;;;2.00;;
75837;SDS011;64480;52.040;113.502;2023-04-24T00:24:07;5.75;;;1.30;;
75837;SDS011;64480;52.040;113.502;2023-04-24T00:27:14;3.33;;;1.90;;
75837;SDS011;64480;52.040;113.502;2023-04-24T00:30:17;6.75;;;1.30;;
75837;SDS011;64480;52.040;113.502;2023-04-24T00:33:20;6.18;;;1.98;;
75837;SDS011;64480;52.040;113.502;2023-04-24T00:36:24;8.43;;;2.10;;
75837;SDS011;64480;52.040;113.502;2023-04-24T00:39:29;6.53;;;1.70;;
75837;SDS011;64480;52.040;113.502;2023-04-24T00:42:32;6.68;;;2.22;;
75837;SDS011;64480;52.040;113.502;2023-04-24T00:45:38;6.20;;;1.80;;
75837;SDS011;64480;52.040;113.502;2023-04-24T00:48:41;3.35;;;1.65;;
75837;SDS011;64480;52.040;113.502;2023-04-24T00:51:47;3.50;;;1.60;;
75837;SDS011;64480;52.040;113.502;2023-04-24T00:54:51;4.60;;;2.20;;
75837;SDS011;64480;52.040;113.502;2023-04-24T00:57:55;11.38;;;2.42;;
75837;SDS011;64480;52.040;113.502;2023-04-24T01:00:58;9.10;;;2.22;;
75837;SDS011;64480;52.040;113.502;2023-04-24T01:04:03;3.17;;;1.50;;
75837;SDS011;64480;52.040;113.502;2023-04-24T01:07:08;9.65;;;4.05;;
75837;SDS011;64480;52.040;113.502;2023-04-24T01:10:13;4.38;;;2.20;;
75837;SDS011;64480;52.040;113.502;2023-04-24T01:13:19;7.55;;;2.70;;
75837;SDS011;64480;52.040;113.502;2023-04-24T01:16:23;5.97;;;2.08;;
75837;SDS011;64480;52.040;113.502;2023-04-24T01:19:28;5.20;;;1.75;;
75837;SDS011;64480;52.040;113.502;2023-04-24T01:22:33;2.00;;;0.90;;
75837;SDS011;64480;52.040;113.502;2023-04-24T01:25:37;1.90;;;1.30;;
75837;SDS011;64480;52.040;113.502;2023-04-24T01:28:40;9.25;;;1.58;;
75837;SDS011;64480;52.040;113.502;2023-04-24T01:31:44;3.30;;;1.58;;
75837;SDS011;64480;52.040;113.502;2023-04-24T01:34:48;6.72;;;1.95;;
75837;SDS011;64480;52.040;113.502;2023-04-24T01:37:52;4.40;;;1.20;;
75837;SDS011;64480;52.040;113.502;2023-04-24T01:40:55;4.80;;;1.27;;
75837;SDS011;64480;52.040;113.502;2023-04-24T01:43:59;2.15;;;1.33;;
75837;SDS011;64480;52.040;113.502;2023-04-24T01:47:03;2.35;;;1.50;;
75837;SDS011;64480;52.040;113.502;2023-04-24T01:50:07;4.25;;;1.17;;
75837;SDS011;64480;52.040;113.502;2023-04-24T01:53:12;1.42;;;0.90;;
75837;SDS011;64480;52.040;113.502;2023-04-24T01:56:16;4.28;;;2.50;;
75837;SDS011;64480;52.040;113.502;2023-04-24T01:59:21;5.07;;;2.28;;
75837;SDS011;64480;52.040;113.502;2023-04-24T02:02:26;5.00;;;1.33;;
75837;SDS011;64480;52.040;113.502;2023-04-24T02:05:31;4.13;;;1.33;;
75837;SDS011;64480;52.040;113.502;2023-04-24T02:08:36;5.57;;;1.73;;
75837;SDS011;64480;52.040;113.502;2023-04-24T02:11:40;1.60;;;1.02;;
75837;SDS011;64480;52.040;113.502;2023-04-24T02:14:44;2.72;;;1.30;;
75837;SDS011;64480;52.040;113.502;2023-04-24T02:17:47;10.30;;;1.98;;
75837;SDS011;64480;52.040;113.502;2023-04-24T02:20:51;3.00;;;1.40;;
75837;SDS011;64480;52.040;113.502;2023-04-24T02:23:54;2.53;;;1.70;;
75837;SDS011;64480;52.040;113.502;2023-04-24T02:26:58;3.90;;;1.58;;
75837;SDS011;64480;52.040;113.502;2023-04-24T02:30:01;3.65;;;1.23;;
75837;SDS011;64480;52.040;113.502;2023-04-24T02:33:05;3.67;;;1.73;;
75837;SDS011;64480;52.040;113.502;2023-04-24T02:36:08;4.30;;;1.67;;
75837;SDS011;64480;52.040;113.502;2023-04-24T02:39:12;6.15;;;2.45;;
75837;SDS011;64480;52.040;113.502;2023-04-24T02:42:16;10.38;;;2.08;;
75837;SDS011;64480;52.040;113.502;2023-04-24T02:45:20;2.42;;;1.40;;
75837;SDS011;64480;52.040;113.502;2023-04-24T02:48:23;5.78;;;1.75;;
75837;SDS011;64480;52.040;113.502;2023-04-24T02:51:26;9.98;;;1.52;;
75837;SDS011;64480;52.040;113.502;2023-04-24T02:54:30;4.72;;;1.40;;
75837;SDS011;64480;52.040;113.502;2023-04-24T02:57:33;3.28;;;1.10;;
75837;SDS011;64480;52.040;113.502;2023-04-24T03:00:37;1.70;;;1.17;;
75837;SDS011;64480;52.040;113.502;2023-04-24T03:03:40;4.03;;;1.95;;
75837;SDS011;64480;52.040;113.502;2023-04-24T03:06:44;9.88;;;1.85;;
75837;SDS011;64480;52.040;113.502;2023-04-24T03:09:48;2.90;;;1.35;;
75837;SDS011;64480;52.040;113.502;2023-04-24T03:12:51;9.90;;;2.30;;
75837;SDS011;64480;52.040;113.502;2023-04-24T03:15:55;3.80;;;1.80;;
75837;SDS011;64480;52.040;113.502;2023-04-24T03:18:58;8.02;;;1.20;;
75837;SDS011;64480;52.040;113.502;2023-04-24T03:22:06;2.88;;;1.13;;
75837;SDS011;64480;52.040;113.502;2023-04-24T03:25:12;2.45;;;1.35;;
75837;SDS011;64480;52.040;113.502;2023-04-24T03:28:16;5.60;;;1.75;;
75837;SDS011;64480;52.040;113.502;2023-04-24T03:31:26;7.22;;;3.17;;
75837;SDS011;64480;52.040;113.502;2023-04-24T03:34:29;6.57;;;2.00;;
75837;SDS011;64480;52.040;113.502;2023-04-24T03:37:33;1.65;;;1.38;;
75837;SDS011;64480;52.040;113.502;2023-04-24T03:40:56;5.28;;;1.40;;
75837;SDS011;64480;52.040;113.502;2023-04-24T03:44:10;16.00;;;1.95;;
75837;SDS011;64480;52.040;113.502;2023-04-24T03:47:14;2.97;;;1.40;;
75837;SDS011;64480;52.040;113.502;2023-04-24T03:50:19;2.25;;;0.80;;
75837;SDS011;64480;52.040;113.502;2023-04-24T03:53:23;5.93;;;1.45;;
75837;SDS011;64480;52.040;113.502;2023-04-24T03:56:28;2.97;;;0.98;;
75837;SDS011;64480;52.040;113.502;2023-04-24T03:59:31;5.32;;;1.33;;
75837;SDS011;64480;52.040;113.502;2023-04-24T04:02:49;1.40;;;0.90;;
75837;SDS011;64480;52.040;113.502;2023-04-24T04:05:53;4.18;;;1.00;;
75837;SDS011;64480;52.040;113.502;2023-04-24T04:08:57;4.43;;;1.20;;
75837;SDS011;64480;52.040;113.502;2023-04-24T04:12:01;3.97;;;1.30;;
75837;SDS011;64480;52.040;113.502;2023-04-24T04:15:07;3.75;;;1.25;;
75837;SDS011;64480;52.040;113.502;2023-04-24T04:18:11;2.75;;;0.50;;
75837;SDS011;64480;52.040;113.502;2023-04-24T04:21:14;8.05;;;1.40;;
75837;SDS011;64480;52.040;113.502;2023-04-24T04:24:19;2.88;;;0.80;;
75837;SDS011;64480;52.040;113.502;2023-04-24T04:27:26;1.75;;;1.00;;
75837;SDS011;64480;52.040;113.502;2023-04-24T04:30:36;1.92;;;1.05;;
75837;SDS011;64480;52.040;113.502;2023-04-24T04:33:41;5.38;;;1.42;;
75837;SDS011;64480;52.040;113.502;2023-04-24T04:36:44;3.78;;;0.95;;
75837;SDS011;64480;52.040;113.502;2023-04-24T04:39:59;3.72;;;1.00;;
75837;SDS011;64480;52.040;113.502;2023-04-24T04:43:10;4.18;;;0.88;;
75837;SDS011;64480;52.040;113.502;2023-04-24T04:46:23;6.93;;;1.60;;
75837;SDS011;64480;52.040;113.502;2023-04-24T04:52:51;6.97;;;4.15;;
75837;SDS011;64480;52.040;113.502;2023-04-24T04:56:01;5.32;;;1.73;;
75837;SDS011;64480;52.040;113.502;2023-04-24T04:59:11;2.08;;;1.10;;
75837;SDS011;64480;52.040;113.502;2023-04-24T05:02:15;18.92;;;2.47;;
75837;SDS011;64480;52.040;113.502;2023-04-24T05:05:19;2.67;;;0.85;;
75837;SDS011;64480;52.040;113.502;2023-04-24T05:08:23;4.20;;;1.30;;
75837;SDS011;64480;52.040;113.502;2023-04-24T05:11:30;2.25;;;1.45;;
75837;SDS011;64480;52.040;113.502;2023-04-24T05:14:35;7.43;;;1.08;;
75837;SDS011;64480;52.040;113.502;2023-04-24T05:17:38;3.92;;;1.13;;
75837;SDS011;64480;52.040;113.502;2023-04-24T05:20:44;5.07;;;2.63;;
75837;SDS011;64480;52.040;113.502;2023-04-24T05:23:48;7.80;;;1.70;;
75837;SDS011;64480;52.040;113.502;2023-04-24T05:27:00;2.55;;;1.10;;
75837;SDS011;64480;52.040;113.502;2023-04-24T05:30:09;7.63;;;1.17;;
75837;SDS011;64480;52.040;113.502;2023-04-24T05:33:13;2.50;;;1.02;;
75837;SDS011;64480;52.040;113.502;2023-04-24T05:36:17;3.03;;;0.90;;
75837;SDS011;64480;52.040;113.502;2023-04-24T05:39:20;3.33;;;2.88;;
75837;SDS011;64480;52.040;113.502;2023-04-24T05:42:23;3.47;;;1.10;;
75837;SDS011;64480;52.040;113.502;2023-04-24T05:45:27;9.13;;;1.63;;
75837;SDS011;64480;52.040;113.502;2023-04-24T05:48:31;10.00;;;1.88;;
75837;SDS011;64480;52.040;113.502;2023-04-24T05:51:37;17.23;;;2.25;;
75837;SDS011;64480;52.040;113.502;2023-04-24T05:54:41;6.95;;;1.40;;
75837;SDS011;64480;52.040;113.502;2023-04-24T05:57:47;5.18;;;1.40;;
75837;SDS011;64480;52.040;113.502;2023-04-24T06:00:52;7.47;;;2.75;;
75837;SDS011;64480;52.040;113.502;2023-04-24T06:03:55;2.33;;;1.13;;
75837;SDS011;64480;52.040;113.502;2023-04-24T06:07:00;2.65;;;1.27;;
75837;SDS011;64480;52.040;113.502;2023-04-24T06:10:03;9.05;;;1.23;;
75837;SDS011;64480;52.040;113.502;2023-04-24T06:13:14;10.73;;;1.50;;
75837;SDS011;64480;52.040;113.502;2023-04-24T06:16:30;3.40;;;1.00;;
75837;SDS011;64480;52.040;113.502;2023-04-24T06:19:40;7.90;;;1.20;;
75837;SDS011;64480;52.040;113.502;2023-04-24T06:22:44;3.22;;;1.73;;
75837;SDS011;64480;52.040;113.502;2023-04-24T06:25:48;8.70;;;1.42;;
75837;SDS011;64480;52.040;113.502;2023-04-24T06:28:54;2.42;;;0.95;;
75837;SDS011;64480;52.040;113.502;2023-04-24T06:31:59;3.60;;;1.08;;
75837;SDS011;64480;52.040;113.502;2023-04-24T06:35:02;16.02;;;2.83;;
75837;SDS011;64480;52.040;113.502;2023-04-24T06:38:06;3.28;;;1.10;;
75837;SDS011;64480;52.040;113.502;2023-04-24T06:41:10;3.45;;;1.20;;
75837;SDS011;64480;52.040;113.502;2023-04-24T06:44:13;2.08;;;1.40;;
75837;SDS011;64480;52.040;113.502;2023-04-24T06:47:17;1.52;;;0.80;;
75837;SDS011;64480;52.040;113.502;2023-04-24T06:50:21;5.30;;;1.15;;
75837;SDS011;64480;52.040;113.502;2023-04-24T06:53:24;3.72;;;1.15;;
75837;SDS011;64480;52.040;113.502;2023-04-24T06:56:28;18.13;;;1.50;;
75837;SDS011;64480;52.040;113.502;2023-04-24T06:59:32;19.25;;;2.92;;
75837;SDS011;64480;52.040;113.502;2023-04-24T07:02:35;18.83;;;2.00;;
75837;SDS011;64480;52.040;113.502;2023-04-24T07:05:40;4.22;;;1.15;;
75837;SDS011;64480;52.040;113.502;2023-04-24T07:08:44;1.38;;;0.85;;
75837;SDS011;64480;52.040;113.502;2023-04-24T07:11:47;3.03;;;1.40;;
75837;SDS011;64480;52.040;113.502;2023-04-24T07:14:51;5.03;;;1.02;;
75837;SDS011;64480;52.040;113.502;2023-04-24T07:17:55;6.13;;;1.48;;
75837;SDS011;64480;52.040;113.502;2023-04-24T07:21:15;5.80;;;1.42;;
75837;SDS011;64480;52.040;113.502;2023-04-24T07:24:18;8.52;;;1.88;;
75837;SDS011;64480;52.040;113.502;2023-04-24T07:27:24;3.17;;;1.25;;
75837;SDS011;64480;52.040;113.502;2023-04-24T07:30:28;7.88;;;1.30;;
75837;SDS011;64480;52.040;113.502;2023-04-24T07:33:32;4.30;;;1.80;;
75837;SDS011;64480;52.040;113.502;2023-04-24T07:36:35;26.80;;;3.13;;
75837;SDS011;64480;52.040;113.502;2023-04-24T07:39:40;2.42;;;1.00;;
75837;SDS011;64480;52.040;113.502;2023-04-24T07:42:44;1.70;;;0.90;;
75837;SDS011;64480;52.040;113.502;2023-04-24T07:45:50;2.20;;;1.10;;
75837;SDS011;64480;52.040;113.502;2023-04-24T07:48:54;1.33;;;0.80;;
75837;SDS011;64480;52.040;113.502;2023-04-24T07:52:13;4.53;;;1.52;;
75837;SDS011;64480;52.040;113.502;2023-04-24T07:55:17;11.27;;;1.42;;
75837;SDS011;64480;52.040;113.502;2023-04-24T07:58:24;3.08;;;1.70;;
75837;SDS011;64480;52.040;113.502;2023-04-24T08:01:46;3.85;;;1.20;;
75837;SDS011;64480;52.040;113.502;2023-04-24T08:04:50;2.28;;;1.02;;
75837;SDS011;64480;52.040;113.502;2023-04-24T08:07:54;7.97;;;1.35;;
75837;SDS011;64480;52.040;113.502;2023-04-24T08:10:58;5.43;;;1.40;;
75837;SDS011;64480;52.040;113.502;2023-04-24T08:14:01;1.67;;;0.80;;
75837;SDS011;64480;52.040;113.502;2023-04-24T08:17:05;2.60;;;0.98;;
75837;SDS011;64480;52.040;113.502;2023-04-24T08:20:08;8.35;;;1.92;;
75837;SDS011;64480;52.040;113.502;2023-04-24T08:26:19;5.15;;;1.20;;
75837;SDS011;64480;52.040;113.502;2023-04-24T08:29:22;8.23;;;1.25;;
75837;SDS011;64480;52.040;113.502;2023-04-24T08:32:26;5.43;;;1.10;;
75837;SDS011;64480;52.040;113.502;2023-04-24T08:35:35;8.95;;;1.08;;
75837;SDS011;64480;52.040;113.502;2023-04-24T08:38:38;4.38;;;1.00;;
75837;SDS011;64480;52.040;113.502;2023-04-24T08:41:44;2.28;;;0.90;;
75837;SDS011;64480;52.040;113.502;2023-04-24T08:44:48;2.42;;;1.38;;
75837;SDS011;64480;52.040;113.502;2023-04-24T08:47:53;4.60;;;1.52;;
75837;SDS011;64480;52.040;113.502;2023-04-24T08:50:59;4.80;;;1.20;;
75837;SDS011;64480;52.040;113.502;2023-04-24T08:54:04;1.58;;;1.00;;
75837;SDS011;64480;52.040;113.502;2023-04-24T08:57:09;5.07;;;1.35;;
75837;SDS011;64480;52.040;113.502;2023-04-24T09:00:14;3.45;;;1.98;;
75837;SDS011;64480;52.040;113.502;2023-04-24T09:03:18;3.33;;;1.52;;
75837;SDS011;64480;52.040;113.502;2023-04-24T09:06:23;6.20;;;1.27;;
75837;SDS011;64480;52.040;113.502;2023-04-24T09:09:29;2.10;;;1.33;;
75837;SDS011;64480;52.040;113.502;2023-04-24T09:12:34;11.30;;;2.03;;
75837;SDS011;64480;52.040;113.502;2023-04-24T09:15:38;10.98;;;3.08;;
75837;SDS011;64480;52.040;113.502;2023-04-24T09:18:42;6.55;;;1.88;;
75837;SDS011;64480;52.040;113.502;2023-04-24T09:21:46;2.75;;;1.20;;
75837;SDS011;64480;52.040;113.502;2023-04-24T09:24:59;6.53;;;1.88;;
75837;SDS011;64480;52.040;113.502;2023-04-24T09:28:06;2.28;;;1.33;;
75837;SDS011;64480;52.040;113.502;2023-04-24T09:31:11;3.13;;;1.50;;
75837;SDS011;64480;52.040;113.502;2023-04-24T09:34:23;5.05;;;1.88;;
75837;SDS011;64480;52.040;113.502;2023-04-24T09:37:28;3.80;;;1.40;;
75837;SDS011;64480;52.040;113.502;2023-04-24T09:40:33;3.42;;;1.00;;
75837;SDS011;64480;52.040;113.502;2023-04-24T09:43:41;4.63;;;1.30;;
75837;SDS011;64480;52.040;113.502;2023-04-24T09:46:45;7.75;;;1.83;;
75837;SDS011;64480;52.040;113.502;2023-04-24T09:50:15;4.68;;;1.35;;
75837;SDS011;64480;52.040;113.502;2023-04-24T09:53:28;6.75;;;1.70;;
75837;SDS011;64480;52.040;113.502;2023-04-24T09:56:33;15.20;;;2.22;;
75837;SDS011;64480;52.040;113.502;2023-04-24T09:59:41;8.30;;;1.90;;
75837;SDS011;64480;52.040;113.502;2023-04-24T10:02:58;5.80;;;1.80;;
75837;SDS011;64480;52.040;113.502;2023-04-24T10:06:05;14.32;;;2.75;;
75837;SDS011;64480;52.040;113.502;2023-04-24T10:09:11;17.30;;;2.70;;
75837;SDS011;64480;52.040;113.502;2023-04-24T10:12:16;6.22;;;2.47;;
75837;SDS011;64480;52.040;113.502;2023-04-24T10:15:19;7.28;;;1.88;;
75837;SDS011;64480;52.040;113.502;2023-04-24T10:18:23;4.07;;;1.30;;
75837;SDS011;64480;52.040;113.502;2023-04-24T10:21:28;11.45;;;2.50;;
75837;SDS011;64480;52.040;113.502;2023-04-24T10:24:31;7.55;;;2.22;;
75837;SDS011;64480;52.040;113.502;2023-04-24T10:27:39;6.47;;;1.63;;
75837;SDS011;64480;52.040;113.502;2023-04-24T10:30:43;4.18;;;1.60;;
75837;SDS011;64480;52.040;113.502;2023-04-24T10:33:46;13.68;;;2.50;;
75837;SDS011;64480;52.040;113.502;2023-04-24T10:36:52;9.80;;;2.67;;
75837;SDS011;64480;52.040;113.502;2023-04-24T10:39:59;9.85;;;2.10;;
75837;SDS011;64480;52.040;113.502;2023-04-24T10:43:03;15.88;;;5.35;;
75837;SDS011;64480;52.040;113.502;2023-04-24T10:46:16;12.57;;;1.98;;
75837;SDS011;64480;52.040;113.502;2023-04-24T10:49:29;14.75;;;3.63;;
75837;SDS011;64480;52.040;113.502;2023-04-24T10:52:43;7.15;;;1.67;;
75837;SDS011;64480;52.040;113.502;2023-04-24T10:55:49;6.60;;;1.73;;
75837;SDS011;64480;52.040;113.502;2023-04-24T10:59:00;9.40;;;2.33;;
75837;SDS011;64480;52.040;113.502;2023-04-24T11:02:04;3.78;;;1.50;;
75837;SDS011;64480;52.040;113.502;2023-04-24T11:05:10;3.10;;;1.10;;
75837;SDS011;64480;52.040;113.502;2023-04-24T11:08:23;6.00;;;1.55;;
75837;SDS011;64480;52.040;113.502;2023-04-24T11:11:30;6.70;;;1.77;;
75837;SDS011;64480;52.040;113.502;2023-04-24T11:18:00;12.85;;;4.22;;
75837;SDS011;64480;52.040;113.502;2023-04-24T11:21:13;4.60;;;1.90;;
75837;SDS011;64480;52.040;113.502;2023-04-24T11:27:50;7.15;;;1.60;;
75837;SDS011;64480;52.040;113.502;2023-04-24T11:34:38;3.00;;;1.48;;
75837;SDS011;64480;52.040;113.502;2023-04-24T11:37:43;7.85;;;1.67;;
75837;SDS011;64480;52.040;113.502;2023-04-24T11:40:54;4.72;;;2.15;;
75837;SDS011;64480;52.040;113.502;2023-04-24T11:43:58;9.75;;;2.38;;
75837;SDS011;64480;52.040;113.502;2023-04-24T11:47:01;5.53;;;2.03;;
75837;SDS011;64480;52.040;113.502;2023-04-24T11:50:05;9.48;;;2.08;;
75837;SDS011;64480;52.040;113.502;2023-04-24T11:53:10;4.68;;;2.10;;
75837;SDS011;64480;52.040;113.502;2023-04-24T11:56:18;5.20;;;2.30;;
75837;SDS011;64480;52.040;113.502;2023-04-24T11:59:22;6.55;;;2.05;;
75837;SDS011;64480;52.040;113.502;2023-04-24T12:02:26;6.13;;;2.20;;
75837;SDS011;64480;52.040;113.502;2023-04-24T12:05:30;3.67;;;1.70;;
75837;SDS011;64480;52.040;113.502;2023-04-24T12:08:34;7.07;;;1.85;;
75837;SDS011;64480;52.040;113.502;2023-04-24T12:11:51;5.55;;;1.83;;
75837;SDS011;64480;52.040;113.502;2023-04-24T12:14:57;5.97;;;2.13;;
75837;SDS011;64480;52.040;113.502;2023-04-24T12:18:03;4.88;;;1.85;;
75837;SDS011;64480;52.040;113.502;2023-04-24T12:24:24;5.20;;;2.33;;
75837;SDS011;64480;52.040;113.502;2023-04-24T12:27:31;7.40;;;1.75;;
75837;SDS011;64480;52.040;113.502;2023-04-24T12:30:38;5.80;;;2.00;;
75837;SDS011;64480;52.040;113.502;2023-04-24T12:33:47;7.20;;;2.00;;
75837;SDS011;64480;52.040;113.502;2023-04-24T12:36:50;13.80;;;2.55;;
75837;SDS011;64480;52.040;113.502;2023-04-24T12:40:01;3.35;;;2.00;;
75837;SDS011;64480;52.040;113.502;2023-04-24T12:43:15;4.28;;;2.28;;
75837;SDS011;64480;52.040;113.502;2023-04-24T12:46:25;7.72;;;3.15;;
75837;SDS011;64480;52.040;113.502;2023-04-24T12:49:29;16.10;;;2.80;;
75837;SDS011;64480;52.040;113.502;2023-04-24T12:52:33;8.20;;;2.42;;
75837;SDS011;64480;52.040;113.502;2023-04-24T12:55:37;8.02;;;2.67;;
75837;SDS011;64480;52.040;113.502;2023-04-24T12:58:41;6.80;;;2.50;;
75837;SDS011;64480;52.040;113.502;2023-04-24T13:01:44;29.63;;;4.40;;
75837;SDS011;64480;52.040;113.502;2023-04-24T13:04:48;20.65;;;3.28;;
75837;SDS011;64480;52.040;113.502;2023-04-24T13:07:52;5.88;;;2.95;;
75837;SDS011;64480;52.040;113.502;2023-04-24T13:10:57;33.53;;;10.38;;
75837;SDS011;64480;52.040;113.502;2023-04-24T13:14:00;15.20;;;6.38;;
75837;SDS011;64480;52.040;113.502;2023-04-24T13:17:05;74.38;;;23.05;;
75837;SDS011;64480;52.040;113.502;2023-04-24T13:20:11;67.75;;;22.25;;
75837;SDS011;64480;52.040;113.502;2023-04-24T13:23:16;89.97;;;32.85;;
75837;SDS011;64480;52.040;113.502;2023-04-24T13:26:20;80.22;;;30.38;;
75837;SDS011;64480;52.040;113.502;2023-04-24T13:29:25;85.18;;;31.00;;
75837;SDS011;64480;52.040;113.502;2023-04-24T13:32:28;94.45;;;28.80;;
75837;SDS011;64480;52.040;113.502;2023-04-24T13:35:33;110.30;;;37.90;;
75837;SDS011;64480;52.040;113.502;2023-04-24T13:38:37;96.97;;;35.35;;
75837;SDS011;64480;52.040;113.502;2023-04-24T13:41:41;88.82;;;32.95;;
75837;SDS011;64480;52.040;113.502;2023-04-24T13:44:45;103.00;;;36.70;;
75837;SDS011;64480;52.040;113.502;2023-04-24T13:47:48;106.03;;;39.20;;
75837;SDS011;64480;52.040;113.502;2023-04-24T13:50:53;106.97;;;40.50;;
75837;SDS011;64480;52.040;113.502;2023-04-24T13:53:57;117.30;;;40.03;;
75837;SDS011;64480;52.040;113.502;2023-04-24T13:57:02;114.63;;;43.50;;
75837;SDS011;64480;52.040;113.502;2023-04-24T14:00:06;122.50;;;45.38;;
75837;SDS011;64480;52.040;113.502;2023-04-24T14:03:12;143.82;;;44.10;;
75837;SDS011;64480;52.040;113.502;2023-04-24T14:06:17;125.82;;;43.63;;
75837;SDS011;64480;52.040;113.502;2023-04-24T14:09:21;127.72;;;43.97;;
75837;SDS011;64480;52.040;113.502;2023-04-24T14:12:25;108.03;;;35.45;;
75837;SDS011;64480;52.040;113.502;2023-04-24T14:15:28;51.42;;;16.80;;
75837;SDS011;64480;52.040;113.502;2023-04-24T14:18:32;33.15;;;13.80;;
75837;SDS011;64480;52.040;113.502;2023-04-24T14:21:36;50.05;;;15.63;;
75837;SDS011;64480;52.040;113.502;2023-04-24T14:24:39;41.17;;;13.27;;
75837;SDS011;64480;52.040;113.502;2023-04-24T14:27:45;26.95;;;9.27;;
75837;SDS011;64480;52.040;113.502;2023-04-24T14:30:49;24.00;;;9.23;;
75837;SDS011;64480;52.040;113.502;2023-04-24T14:33:53;22.80;;;8.43;;
75837;SDS011;64480;52.040;113.502;2023-04-24T14:36:56;26.33;;;8.52;;
75837;SDS011;64480;52.040;113.502;2023-04-24T14:40:01;30.52;;;9.50;;
75837;SDS011;64480;52.040;113.502;2023-04-24T14:43:26;40.25;;;11.00;;
75837;SDS011;64480;52.040;113.502;2023-04-24T14:46:30;29.17;;;8.50;;
75837;SDS011;64480;52.040;113.502;2023-04-24T14:49:33;26.15;;;8.80;;
75837;SDS011;64480;52.040;113.502;2023-04-24T14:52:37;19.23;;;7.72;;
75837;SDS011;64480;52.040;113.502;2023-04-24T14:55:40;20.00;;;6.68;;
75837;SDS011;64480;52.040;113.502;2023-04-24T14:58:44;14.55;;;5.97;;
75837;SDS011;64480;52.040;113.502;2023-04-24T15:01:47;28.55;;;9.73;;
75837;SDS011;64480;52.040;113.502;2023-04-24T15:04:57;27.10;;;10.32;;
75837;SDS011;64480;52.040;113.502;2023-04-24T15:08:01;27.08;;;9.57;;
75837;SDS011;64480;52.040;113.502;2023-04-24T15:11:05;17.75;;;6.05;;
75837;SDS011;64480;52.040;113.502;2023-04-24T15:14:08;19.63;;;6.32;;
75837;SDS011;64480;52.040;113.502;2023-04-24T15:17:13;36.30;;;12.45;;
75837;SDS011;64480;52.040;113.502;2023-04-24T15:20:16;17.50;;;5.70;;
75837;SDS011;64480;52.040;113.502;2023-04-24T15:23:20;20.98;;;8.35;;
75837;SDS011;64480;52.040;113.502;2023-04-24T15:26:23;19.45;;;8.35;;
75837;SDS011;64480;52.040;113.502;2023-04-24T15:29:27;84.18;;;27.20;;
75837;SDS011;64480;52.040;113.502;2023-04-24T15:32:31;168.60;;;57.65;;
75837;SDS011;64480;52.040;113.502;2023-04-24T15:35:35;169.27;;;56.30;;
75837;SDS011;64480;52.040;113.502;2023-04-24T15:38:38;165.90;;;58.25;;
75837;SDS011;64480;52.040;113.502;2023-04-24T15:41:42;162.35;;;54.33;;
75837;SDS011;64480;52.040;113.502;2023-04-24T15:44:45;157.80;;;58.22;;
75837;SDS011;64480;52.040;113.502;2023-04-24T15:47:48;151.68;;;51.00;;
75837;SDS011;64480;52.040;113.502;2023-04-24T15:50:53;165.73;;;56.38;;
75837;SDS011;64480;52.040;113.502;2023-04-24T15:53:57;151.10;;;54.10;;
75837;SDS011;64480;52.040;113.502;2023-04-24T15:57:00;136.65;;;44.17;;
75837;SDS011;64480;52.040;113.502;2023-04-24T16:00:04;129.10;;;43.78;;
75837;SDS011;64480;52.040;113.502;2023-04-24T16:03:17;140.07;;;45.70;;
75837;SDS011;64480;52.040;113.502;2023-04-24T16:06:20;135.52;;;45.60;;
75837;SDS011;64480;52.040;113.502;2023-04-24T16:09:23;117.57;;;45.10;;
75837;SDS011;64480;52.040;113.502;2023-04-24T16:12:27;113.50;;;42.42;;
75837;SDS011;64480;52.040;113.502;2023-04-24T16:15:30;121.78;;;40.05;;
75837;SDS011;64480;52.040;113.502;2023-04-24T16:18:35;113.75;;;37.88;;
75837;SDS011;64480;52.040;113.502;2023-04-24T16:21:38;101.20;;;34.80;;
75837;SDS011;64480;52.040;113.502;2023-04-24T16:24:41;96.38;;;31.58;;
75837;SDS011;64480;52.040;113.502;2023-04-24T16:27:46;117.28;;;37.83;;
75837;SDS011;64480;52.040;113.502;2023-04-24T16:30:50;113.53;;;39.42;;
75837;SDS011;64480;52.040;113.502;2023-04-24T16:33:53;114.53;;;37.22;;
75837;SDS011;64480;52.040;113.502;2023-04-24T16:36:57;120.63;;;40.58;;
75837;SDS011;64480;52.040;113.502;2023-04-24T16:40:00;110.43;;;37.75;;
75837;SDS011;64480;52.040;113.502;2023-04-24T16:43:05;119.05;;;38.30;;
75837;SDS011;64480;52.040;113.502;2023-04-24T16:46:09;100.63;;;34.35;;
75837;SDS011;64480;52.040;113.502;2023-04-24T16:49:13;91.53;;;30.88;;
75837;SDS011;64480;52.040;113.502;2023-04-24T16:52:16;99.90;;;34.90;;
75837;SDS011;64480;52.040;113.502;2023-04-24T16:55:20;95.50;;;35.20;;
75837;SDS011;64480;52.040;113.502;2023-04-24T16:58:23;94.30;;;34.17;;
75837;SDS011;64480;52.040;113.502;2023-04-24T17:01:26;99.18;;;37.05;;
75837;SDS011;64480;52.040;113.502;2023-04-24T17:04:30;123.80;;;41.33;;
75837;SDS011;64480;52.040;113.502;2023-04-24T17:07:37;128.27;;;43.38;;
75837;SDS011;64480;52.040;113.502;2023-04-24T17:10:40;118.95;;;43.67;;
75837;SDS011;64480;52.040;113.502;2023-04-24T17:13:43;129.70;;;43.03;;
75837;SDS011;64480;52.040;113.502;2023-04-24T17:16:47;122.25;;;44.42;;
75837;SDS011;64480;52.040;113.502;2023-04-24T17:19:50;136.52;;;45.13;;
75837;SDS011;64480;52.040;113.502;2023-04-24T17:22:54;121.50;;;40.70;;
75837;SDS011;64480;52.040;113.502;2023-04-24T17:25:57;100.15;;;37.72;;
75837;SDS011;64480;52.040;113.502;2023-04-24T17:29:01;84.20;;;29.80;;
75837;SDS011;64480;52.040;113.502;2023-04-24T17:32:05;61.88;;;20.35;;
75837;SDS011;64480;52.040;113.502;2023-04-24T17:35:08;60.47;;;21.25;;
75837;SDS011;64480;52.040;113.502;2023-04-24T17:38:12;53.05;;;18.60;;
75837;SDS011;64480;52.040;113.502;2023-04-24T17:41:15;43.92;;;16.40;;
75837;SDS011;64480;52.040;113.502;2023-04-24T17:44:19;58.83;;;21.00;;
75837;SDS011;64480;52.040;113.502;2023-04-24T17:47:22;70.93;;;23.75;;
75837;SDS011;64480;52.040;113.502;2023-04-24T17:50:27;81.25;;;25.63;;
75837;SDS011;64480;52.040;113.502;2023-04-24T17:53:30;87.30;;;24.83;;
75837;SDS011;64480;52.040;113.502;2023-04-24T17:56:34;86.47;;;24.17;;
75837;SDS011;64480;52.040;113.502;2023-04-24T17:59:37;67.68;;;23.00;;
75837;SDS011;64480;52.040;113.502;2023-04-24T18:02:41;71.25;;;21.73;;
75837;SDS011;64480;52.040;113.502;2023-04-24T18:05:44;57.38;;;20.20;;
75837;SDS011;64480;52.040;113.502;2023-04-24T18:08:47;45.60;;;16.25;;
75837;SDS011;64480;52.040;113.502;2023-04-24T18:11:51;52.58;;;18.65;;